Aeroporto :
LOGIN :

Iscrizione | Disclaimer

   EN    FR    IT 

 










Sommario :    VFR   VFR Marginale   IFR   IFR Intensivo   IFR Molto Intensivo
Visibilità : 
Base nubi : 
>= 8 km
>= 3000ft
5 / 8 km
1000 / 3000 ft
1500m / 5 km
500 / 1000 ft
800 / 1500m
200 / 500 ft
< 800m
< 200 ft
Simboli :   Temporali  Nebbia  Neve Forte  Precipitazioni Forti  Vento > 20 kt
SIGMETs :   Varie  Temporali  Ghiacco  Turbolenza  Onda orograficha  Ceneri Vulcaniche






- Altitudine del aeroporto : 102 ft
- Codice IATA : KEL


EDHK - Holtenau

ULTIMO METAR :
  • 260520Z AUTO 05005KT 4900 // FEW140/// BKN160/// 15/15 Q1018

METARs OBSOLETI :
  • 260450Z AUTO 04003KT 3100 // FEW120/// BKN150/// 14/14 Q1018
  • 260420Z AUTO 04003KT 3600 // FEW100/// BKN150/// 13/12 Q1018
  • 260350Z AUTO VRB02KT 2500 // FEW110/// BKN140/// 12/11 Q1018
  • 260320Z AUTO 00000KT 2300 // NCD 11/11 Q1018
  • 260250Z AUTO VRB02KT 2100 // NCD 11/11 Q1018
  • 260220Z AUTO 12003KT 0600 R08/1200N // FEW005/// 12/11 Q1018
  • 260150Z AUTO 06003KT 0500 R08/0550D // FEW005/// 12/11 Q1018
  • 260120Z AUTO 05003KT 1700 // FEW005/// 11/11 Q1018
  • 260050Z AUTO 08005KT 1900 // NCD 12/11 Q1018

TAF COR TAF EDHK
Valido dal 26 a 04 ore il 26 a 12 ore UTC


260347Z 2604/2612 07004KT 2000 BR FEW025
BECMG 2604/2606 4000 BR
TEMPO 2604/2605 0400 FG
PROB30
TEMPO 2605/2607 SHRA BKN040CB
BECMG 2606/2608 9999



MetMap, La meteo Aeronautica in un colpo d'occhio ! - Copyright ORBIFLY Dicembre 2007 - Disclaimer

ORBIFLY MET'MAP TEAM :

Programmazione e sviluppo : Alexandra Zaïnal
Concezione : Baudouin d'Aumeries
Supporto tecnico e logistico : Manuel Goepfert
Aiuto : Marc-Olivier Méhu
Aiuto per la traduzione : Arnaldo La Scala




FONTI E CREDITI :

   NOAA